EREK1: Neosho River near Erie

Data processed at Sat Mar 10 2018 23:22


All information presented herein is the property of the government of the United States of America and may be revised or deleted at any time without prior notice.
Dissemination of this information without the expressed written consent of the Public Affairs Office, Tulsa District U.S. Army Corps of Engineers is strictly prohibited.
These data are gathered electronically and, as presented, have not undergone any form of quality control. These data are not guaranteed to be valid or correct.
Go to home page.
Go to station list.

Upstream stations:

Downstream station:
Previous Day
Next Day
Current Day
    
SHEF ID:       EREK1     NEOSHO R NR ERIE, KS
STATION TYPE:  

               PRECIP     STAGE  RIV-FLOW  BAT-LOAD
                   in        ft       cfs      volt
              Ccp-Rev   Ccp-Rev   Ccp-Rev   Ccp-Rev
(US/Central)
03/08 00:00      0.00     11.73       282     12.65
03/08 01:00      0.00     11.73       282     12.65
03/08 02:00      0.00     11.72       276     12.65
03/08 03:00      0.00     11.72       276     12.60
03/08 04:00      0.00     11.72       276     12.60
03/08 05:00      0.00     11.71       270     12.54
03/08 06:00      0.00     11.70       264     12.54
03/08 07:00      0.00     11.70       264     12.48
03/08 08:00      0.00     11.67       248     12.54
03/08 09:00      0.00     11.64       233     13.65
03/08 10:00      0.00     11.66       243     14.18
03/08 11:00      0.00     11.65       238     14.41
03/08 12:00      0.00     11.65       238     14.47
03/08 13:00      0.00     11.66       243     14.47
03/08 14:00      0.00     11.60       213     14.47
03/08 15:00      0.00     11.60       213     14.47
03/08 16:00      0.00     11.58       204     14.24
03/08 17:00      0.00     11.58       204     14.06
03/08 18:00      0.00     11.62       223     14.06
03/08 19:00      0.00     11.62       223     13.42
03/08 20:00      0.00     11.62       223     12.89
03/08 21:00      0.00     11.62       223     12.77
03/08 22:00      0.00     11.62       223     12.71
03/08 23:00      0.00     11.61       218     12.71